createdAt,value
2023-02-17T00:00:54.111Z,53.09
2023-02-17T00:04:03.939Z,53.69
2023-02-17T00:07:10.616Z,53.54
2023-02-17T00:10:16.562Z,53.67
2023-02-17T00:13:23.228Z,52.94
2023-02-17T00:16:32.331Z,52.78
2023-02-17T00:19:41.663Z,52.16
2023-02-17T00:22:47.568Z,51.06
2023-02-17T00:25:54.278Z,51.35
2023-02-17T00:29:02.084Z,52.89
2023-02-17T00:32:10.709Z,52.39
2023-02-17T00:35:19.882Z,54.46
2023-02-17T00:38:26.845Z,56.01
2023-02-17T00:41:33.802Z,57.09
2023-02-17T00:44:40.486Z,56.57
2023-02-17T00:47:46.255Z,57.34
2023-02-17T00:50:55.582Z,58.01
2023-02-17T00:54:01.417Z,58.91
2023-02-17T00:57:08.268Z,58.70
2023-02-17T01:00:16.083Z,58.93
2023-02-17T01:03:23.159Z,60.16
2023-02-17T01:06:36.807Z,59.31
2023-02-17T01:09:43.548Z,59.58
2023-02-17T01:12:49.370Z,58.79
2023-02-17T01:15:57.075Z,57.60
2023-02-17T01:19:03.686Z,58.45
2023-02-17T01:22:13.810Z,59.01
2023-02-17T01:25:19.830Z,57.04
2023-02-17T01:28:26.721Z,55.64
2023-02-17T01:31:39.447Z,55.76
2023-02-17T01:34:46.341Z,55.00
2023-02-17T01:37:54.778Z,55.24
2023-02-17T01:41:07.797Z,55.11
2023-02-17T01:44:21.987Z,55.01
2023-02-17T01:47:32.840Z,54.72
2023-02-17T01:50:48.222Z,54.81
2023-02-17T01:54:10.573Z,53.54
2023-02-17T01:57:26.786Z,52.85
2023-02-17T02:00:44.117Z,52.94
2023-02-17T02:03:53.576Z,52.08
2023-02-17T02:07:04.975Z,51.20
2023-02-17T02:10:17.562Z,51.68
2023-02-17T02:13:24.925Z,54.70
2023-02-17T02:16:49.803Z,56.33
2023-02-17T02:20:31.542Z,55.27
2023-02-17T02:24:08.319Z,49.67
2023-02-17T02:27:48.952Z,48.54
2023-02-17T02:31:27.705Z,47.49
2023-02-17T02:34:55.245Z,48.42
2023-02-17T02:38:12.218Z,47.84
2023-02-17T02:41:29.652Z,47.04
2023-02-17T02:44:35.599Z,46.64
2023-02-17T02:47:56.144Z,45.79
2023-02-17T02:51:35.564Z,47.39
2023-02-17T02:55:00.652Z,47.20
2023-02-17T02:58:22.401Z,46.94
2023-02-17T03:01:47.370Z,46.23
2023-02-17T03:05:14.249Z,45.65
2023-02-17T03:08:36.317Z,46.35
2023-02-17T03:11:49.129Z,46.35
2023-02-17T03:15:08.212Z,46.47
2023-02-17T03:18:14.424Z,44.54
2023-02-17T03:21:23.052Z,44.75
2023-02-17T03:24:36.463Z,44.26
2023-02-17T03:27:46.744Z,43.46
2023-02-17T03:30:53.794Z,43.57
2023-02-17T03:34:02.452Z,44.13
2023-02-17T03:37:08.274Z,44.31
2023-02-17T03:40:17.769Z,44.26
2023-02-17T03:43:23.877Z,44.93
2023-02-17T03:46:30.870Z,45.41
2023-02-17T03:49:36.927Z,46.93
2023-02-17T03:52:43.611Z,47.13
2023-02-17T03:55:52.220Z,45.27
2023-02-17T03:58:59.029Z,45.23
2023-02-17T04:02:04.925Z,45.44
2023-02-17T04:05:12.007Z,45.09
2023-02-17T04:08:18.019Z,45.18
2023-02-17T04:11:27.576Z,46.33
2023-02-17T04:14:33.507Z,46.08
2023-02-17T04:17:41.096Z,45.93
2023-02-17T04:20:47.385Z,45.64
2023-02-17T04:23:55.311Z,44.59
2023-02-17T04:27:03.937Z,45.56
2023-02-17T04:30:12.924Z,45.74
2023-02-17T04:33:20.344Z,47.77
2023-02-17T04:36:28.186Z,52.44
2023-02-17T04:39:34.100Z,55.41
2023-02-17T04:42:43.470Z,52.88
2023-02-17T04:45:49.344Z,50.52
2023-02-17T04:48:56.237Z,49.76
2023-02-17T04:52:02.360Z,54.22
2023-02-17T04:55:11.244Z,60.97
2023-02-17T04:58:20.958Z,51.12
2023-02-17T05:01:27.769Z,48.67
2023-02-17T05:04:34.395Z,47.73
2023-02-17T05:07:41.087Z,45.67
2023-02-17T05:10:47.385Z,46.67
2023-02-17T05:13:56.743Z,45.66
2023-02-17T05:17:02.627Z,47.42
2023-02-17T05:20:12.748Z,47.73
2023-02-17T05:23:18.706Z,48.77
2023-02-17T05:26:25.445Z,47.18
2023-02-17T05:29:33.972Z,46.93
2023-02-17T05:32:40.713Z,46.58
2023-02-17T05:35:46.608Z,45.72
2023-02-17T05:38:53.498Z,44.15
2023-02-17T05:41:59.472Z,45.27
2023-02-17T05:45:09.593Z,43.68
2023-02-17T05:48:15.686Z,44.33
2023-02-17T05:51:22.451Z,46.42
2023-02-17T05:54:28.374Z,47.73
2023-02-17T05:57:35.695Z,46.54
2023-02-17T06:00:44.195Z,48.59
2023-02-17T06:03:51.377Z,49.88
2023-02-17T06:06:57.303Z,52.41
2023-02-17T06:10:04.049Z,49.25
2023-02-17T06:13:09.953Z,49.74
2023-02-17T06:16:19.361Z,49.11
2023-02-17T06:19:25.228Z,49.27
2023-02-17T06:22:31.882Z,48.00
2023-02-17T06:25:37.788Z,47.28
2023-02-17T06:28:44.535Z,46.69
2023-02-17T06:31:53.207Z,44.53
2023-02-17T06:34:59.915Z,43.01
2023-02-17T06:38:05.832Z,43.47
2023-02-17T06:41:12.604Z,41.95
2023-02-17T06:44:18.502Z,42.25
2023-02-17T06:47:27.809Z,40.84
2023-02-17T06:50:33.704Z,40.41
2023-02-17T06:53:40.554Z,39.38
2023-02-17T06:56:46.781Z,37.66
2023-02-17T06:59:53.487Z,37.88
2023-02-17T07:03:02.123Z,37.97
2023-02-17T07:06:09.501Z,37.58
2023-02-17T07:09:15.449Z,38.28
2023-02-17T07:12:22.231Z,37.91
2023-02-17T07:15:28.510Z,38.37
2023-02-17T07:18:38.343Z,37.06
2023-02-17T07:21:44.446Z,38.43
2023-02-17T07:24:51.332Z,38.86
2023-02-17T07:27:57.343Z,38.83
2023-02-17T07:31:09.767Z,39.08
2023-02-17T07:34:18.336Z,37.94
2023-02-17T07:37:25.211Z,39.39
2023-02-17T07:40:31.994Z,40.46
2023-02-17T07:43:38.913Z,36.99
2023-02-17T07:46:45.042Z,36.39
2023-02-17T07:49:54.466Z,37.98
2023-02-17T07:53:00.347Z,38.16
2023-02-17T07:56:08.547Z,39.54
2023-02-17T07:59:16.396Z,38.32
2023-02-17T08:02:23.258Z,38.80
2023-02-17T08:05:31.911Z,41.14
2023-02-17T08:08:51.124Z,46.49
2023-02-17T08:12:09.606Z,45.69
2023-02-17T08:15:17.082Z,42.18
2023-02-17T08:18:23.058Z,43.02
2023-02-17T08:21:33.524Z,43.37
2023-02-17T08:24:39.389Z,43.05
2023-02-17T08:27:46.277Z,44.36
2023-02-17T08:30:52.177Z,38.34
2023-02-17T08:34:00.438Z,36.57
2023-02-17T08:37:10.238Z,39.35
2023-02-17T08:40:17.050Z,40.09
2023-02-17T08:43:22.905Z,41.16
2023-02-17T08:46:31.268Z,37.57
2023-02-17T08:49:37.341Z,35.91
2023-02-17T08:52:46.675Z,35.42
2023-02-17T08:55:52.460Z,34.77
2023-02-17T08:59:00.255Z,33.16
2023-02-17T09:02:06.320Z,33.96
2023-02-17T09:05:13.983Z,34.94
2023-02-17T09:08:23.466Z,35.55
2023-02-17T09:11:30.545Z,35.64
2023-02-17T09:14:36.828Z,36.94
2023-02-17T09:17:44.379Z,38.57
2023-02-17T09:20:50.520Z,34.40
2023-02-17T09:24:00.009Z,33.03
2023-02-17T09:27:06.100Z,36.25
2023-02-17T09:30:14.867Z,43.79
2023-02-17T09:33:20.801Z,46.24
2023-02-17T09:36:33.746Z,42.09
2023-02-17T09:39:42.334Z,35.97
2023-02-17T09:42:50.543Z,33.40
2023-02-17T09:46:04.369Z,32.82
2023-02-17T09:49:19.270Z,33.84
2023-02-17T09:52:36.537Z,35.21
2023-02-17T09:55:54.844Z,36.29
2023-02-17T09:59:10.343Z,32.33
2023-02-17T10:02:31.251Z,34.17
2023-02-17T10:05:45.562Z,33.18
2023-02-17T10:09:02.131Z,32.59
2023-02-17T10:12:18.889Z,34.05
2023-02-17T10:15:34.721Z,30.73
2023-02-17T10:18:50.619Z,30.72
2023-02-17T10:22:14.022Z,30.59
2023-02-17T10:25:28.226Z,30.75
2023-02-17T10:28:54.065Z,29.67
2023-02-17T10:32:22.484Z,31.09
2023-02-17T10:35:51.328Z,32.08
2023-02-17T10:39:09.614Z,32.04
2023-02-17T10:42:28.291Z,32.16
2023-02-17T10:45:41.397Z,31.45
2023-02-17T10:48:55.473Z,34.06
2023-02-17T10:52:09.062Z,34.82
2023-02-17T10:55:28.622Z,36.74
2023-02-17T10:58:44.357Z,33.88
2023-02-17T11:01:54.820Z,32.75
2023-02-17T11:05:00.822Z,29.78
2023-02-17T11:08:31.293Z,29.60
2023-02-17T11:11:40.033Z,32.19
2023-02-17T11:14:51.965Z,35.22
2023-02-17T11:18:11.910Z,31.89
2023-02-17T11:21:19.007Z,30.50
2023-02-17T11:24:25.549Z,34.22
2023-02-17T11:27:33.360Z,31.21
2023-02-17T11:30:41.715Z,28.34
2023-02-17T11:33:51.173Z,30.84
2023-02-17T11:37:07.236Z,28.77
2023-02-17T11:40:29.252Z,29.43
2023-02-17T11:43:36.031Z,30.92
2023-02-17T11:46:55.920Z,30.22
2023-02-17T11:50:41.277Z,28.96
2023-02-17T11:54:07.789Z,28.97
2023-02-17T11:57:39.260Z,31.75
2023-02-17T12:01:12.097Z,34.79
2023-02-17T12:04:30.975Z,34.23
2023-02-17T12:08:02.796Z,32.94
2023-02-17T12:11:32.181Z,33.87
2023-02-17T12:15:10.175Z,30.26
2023-02-17T12:18:42.397Z,31.37
2023-02-17T12:22:11.752Z,34.14
2023-02-17T12:25:31.150Z,39.61
2023-02-17T12:29:31.954Z,44.19
2023-02-17T12:33:08.193Z,35.66
2023-02-17T12:36:26.852Z,35.05
2023-02-17T12:39:44.690Z,33.58
2023-02-17T12:43:05.118Z,31.59
2023-02-17T12:46:23.280Z,29.88
2023-02-17T12:49:40.609Z,31.74
2023-02-17T12:53:03.678Z,30.97
2023-02-17T12:56:51.136Z,30.88
2023-02-17T13:00:05.616Z,31.03
2023-02-17T13:03:13.898Z,31.31
2023-02-17T13:06:39.452Z,31.22
2023-02-17T13:09:56.661Z,31.70
2023-02-17T13:13:21.274Z,33.21
2023-02-17T13:16:35.599Z,35.73
2023-02-17T13:19:42.267Z,32.79
2023-02-17T13:22:51.422Z,33.79
2023-02-17T13:26:29.373Z,33.22
2023-02-17T13:29:39.416Z,43.36
2023-02-17T13:33:08.917Z,40.67
2023-02-17T13:36:20.846Z,40.49
2023-02-17T13:39:41.792Z,34.75
2023-02-17T13:42:50.458Z,36.20
2023-02-17T13:46:10.955Z,41.42
2023-02-17T13:49:29.535Z,39.00
2023-02-17T13:52:36.111Z,42.74
2023-02-17T13:55:43.562Z,36.68
2023-02-17T13:58:49.412Z,32.71
2023-02-17T14:01:58.006Z,27.75
2023-02-17T14:05:21.850Z,26.30
2023-02-17T14:08:40.174Z,24.80
2023-02-17T14:11:46.304Z,25.48
2023-02-17T14:14:53.719Z,26.10
2023-02-17T14:18:00.275Z,26.29
2023-02-17T14:21:13.262Z,25.36
2023-02-17T14:24:32.201Z,28.48
2023-02-17T14:27:47.277Z,27.47
2023-02-17T14:30:54.713Z,27.32
2023-02-17T14:34:05.979Z,26.06
2023-02-17T14:37:31.173Z,26.95
2023-02-17T14:40:40.013Z,30.25
2023-02-17T14:43:46.056Z,28.70
2023-02-17T14:46:52.782Z,28.71
2023-02-17T14:49:58.737Z,28.99
2023-02-17T14:53:17.614Z,29.59
2023-02-17T14:56:32.671Z,31.46
2023-02-17T14:59:39.836Z,30.52
2023-02-17T15:02:45.987Z,30.61
2023-02-17T15:05:53.485Z,31.55
2023-02-17T15:09:04.275Z,35.16
2023-02-17T15:12:20.233Z,34.40
2023-02-17T15:15:26.575Z,34.12
2023-02-17T15:18:33.547Z,34.40
2023-02-17T15:21:43.239Z,34.47
2023-02-17T15:24:53.236Z,34.79
2023-02-17T15:27:59.504Z,34.82
2023-02-17T15:31:06.747Z,38.11
2023-02-17T15:34:18.970Z,33.23
2023-02-17T15:37:25.886Z,29.65
2023-02-17T15:40:34.908Z,31.27
2023-02-17T15:43:41.921Z,30.01
2023-02-17T15:46:49.066Z,28.05
2023-02-17T15:49:55.825Z,26.59
2023-02-17T15:53:02.728Z,24.36
2023-02-17T15:56:22.335Z,25.89
2023-02-17T15:59:31.123Z,24.75
2023-02-17T16:02:37.959Z,25.06
2023-02-17T16:05:45.537Z,25.56
2023-02-17T16:08:52.545Z,27.14
2023-02-17T16:12:01.815Z,26.15
2023-02-17T16:15:14.226Z,25.66
2023-02-17T16:18:26.009Z,26.89
2023-02-17T16:21:39.561Z,28.84
2023-02-17T16:24:47.031Z,27.80
2023-02-17T16:27:58.087Z,30.21
2023-02-17T16:31:13.822Z,26.09
2023-02-17T16:34:24.882Z,27.92
2023-02-17T16:37:30.968Z,28.24
2023-02-17T16:40:47.338Z,30.24
2023-02-17T16:43:58.942Z,27.73
2023-02-17T16:47:08.987Z,27.50
2023-02-17T16:50:27.126Z,26.60
2023-02-17T16:53:33.993Z,26.69
2023-02-17T16:56:46.496Z,27.23
2023-02-17T16:59:56.183Z,27.64
2023-02-17T17:03:04.998Z,24.19
2023-02-17T17:06:25.719Z,25.47
2023-02-17T17:09:31.636Z,24.36
2023-02-17T17:12:38.882Z,25.14
2023-02-17T17:15:49.084Z,24.72
2023-02-17T17:18:56.309Z,24.01
2023-02-17T17:22:04.960Z,24.49
2023-02-17T17:25:18.517Z,26.12
2023-02-17T17:28:26.562Z,26.04
2023-02-17T17:31:40.965Z,22.52
2023-02-17T17:34:47.176Z,22.75
2023-02-17T17:37:54.289Z,26.03
2023-02-17T17:41:00.292Z,23.89
2023-02-17T17:44:10.481Z,23.97
2023-02-17T17:47:29.821Z,24.56
2023-02-17T17:50:36.792Z,22.89
2023-02-17T17:53:42.892Z,23.38
2023-02-17T17:56:50.504Z,23.86
2023-02-17T17:59:58.172Z,23.31
2023-02-17T18:03:08.017Z,20.54
2023-02-17T18:06:21.886Z,20.36
2023-02-17T18:09:36.035Z,21.69
2023-02-17T18:12:45.334Z,22.51
2023-02-17T18:15:52.635Z,21.67
2023-02-17T18:19:06.091Z,24.37
2023-02-17T18:22:16.323Z,22.87
2023-02-17T18:25:23.200Z,22.19
2023-02-17T18:28:30.034Z,22.94
2023-02-17T18:31:38.120Z,22.90
2023-02-17T18:34:47.449Z,23.94
2023-02-17T18:37:53.915Z,23.15
2023-02-17T18:41:03.210Z,23.62
2023-02-17T18:44:11.207Z,23.16
2023-02-17T18:47:18.024Z,23.53
2023-02-17T18:50:27.107Z,22.83
2023-02-17T18:53:36.245Z,26.58
2023-02-17T18:56:42.326Z,26.69
2023-02-17T18:59:50.788Z,23.81
2023-02-17T19:03:03.484Z,23.48
2023-02-17T19:06:19.422Z,22.29
2023-02-17T19:09:25.306Z,24.83
2023-02-17T19:12:32.159Z,25.22
2023-02-17T19:15:38.161Z,23.49
2023-02-17T19:18:46.949Z,22.92
2023-02-17T19:21:56.093Z,23.82
2023-02-17T19:25:07.012Z,21.90
2023-02-17T19:28:13.134Z,22.34
2023-02-17T19:31:23.452Z,21.46
2023-02-17T19:34:31.357Z,22.88
2023-02-17T19:37:43.662Z,23.11
2023-02-17T19:40:50.658Z,22.85
2023-02-17T19:43:57.379Z,22.21
2023-02-17T19:47:05.007Z,23.49
2023-02-17T19:50:12.352Z,22.76
2023-02-17T19:53:27.601Z,22.32
2023-02-17T19:56:37.157Z,22.75
2023-02-17T19:59:43.017Z,22.63
2023-02-17T20:02:50.220Z,22.21
2023-02-17T20:05:56.179Z,22.51
2023-02-17T20:09:14.878Z,21.90
2023-02-17T20:12:21.939Z,25.71
2023-02-17T20:15:28.864Z,22.61
2023-02-17T20:18:34.772Z,21.87
2023-02-17T20:21:47.176Z,22.58
2023-02-17T20:24:55.720Z,20.95
2023-02-17T20:28:04.380Z,22.02
2023-02-17T20:31:11.980Z,25.79
2023-02-17T20:34:34.901Z,25.90
2023-02-17T20:37:40.748Z,26.70
2023-02-17T20:40:50.122Z,26.41
2023-02-17T20:43:56.344Z,26.09
2023-02-17T20:47:17.587Z,24.60
2023-02-17T20:50:26.171Z,23.32
2023-02-17T20:53:32.903Z,23.55
2023-02-17T20:56:45.376Z,25.80
2023-02-17T20:59:52.249Z,24.76
2023-02-17T21:02:58.590Z,21.19
2023-02-17T21:06:24.356Z,24.44
2023-02-17T21:09:30.698Z,24.82
2023-02-17T21:12:40.602Z,24.84
2023-02-17T21:15:46.794Z,24.26
2023-02-17T21:18:55.293Z,23.98
2023-02-17T21:22:01.522Z,25.40
2023-02-17T21:25:12.240Z,26.24
2023-02-17T21:28:25.445Z,24.95
2023-02-17T21:31:32.359Z,23.29
2023-02-17T21:34:42.032Z,24.24
2023-02-17T21:37:48.937Z,22.27
2023-02-17T21:40:55.033Z,18.94
2023-02-17T21:44:16.928Z,17.88
2023-02-17T21:47:26.912Z,17.32
2023-02-17T21:50:37.505Z,16.55
2023-02-17T21:53:43.790Z,16.55
2023-02-17T21:56:50.629Z,16.07
2023-02-17T21:59:59.245Z,18.37
2023-02-17T22:03:05.980Z,18.62
2023-02-17T22:06:22.435Z,17.10
2023-02-17T22:09:32.431Z,16.10
2023-02-17T22:12:39.842Z,17.83
2023-02-17T22:15:49.237Z,21.66
2023-02-17T22:18:55.457Z,21.41
2023-02-17T22:22:08.639Z,17.68
2023-02-17T22:25:33.526Z,14.35
2023-02-17T22:28:40.313Z,14.40
2023-02-17T22:31:50.630Z,14.01
2023-02-17T22:34:57.707Z,15.64
2023-02-17T22:38:03.702Z,16.02
2023-02-17T22:41:13.870Z,15.64
2023-02-17T22:44:20.023Z,16.30
2023-02-17T22:47:29.575Z,15.89
2023-02-17T22:50:35.547Z,14.71
2023-02-17T22:53:42.903Z,14.08
2023-02-17T22:56:48.945Z,14.29
2023-02-17T22:59:55.767Z,15.08
2023-02-17T23:03:04.374Z,15.39
2023-02-17T23:06:18.122Z,14.94
2023-02-17T23:09:24.064Z,16.47
2023-02-17T23:12:30.877Z,15.63
2023-02-17T23:15:42.562Z,15.74
2023-02-17T23:18:52.004Z,15.66
2023-02-17T23:22:03.187Z,15.78
2023-02-17T23:25:09.979Z,16.18
2023-02-17T23:28:16.010Z,17.82
2023-02-17T23:31:22.852Z,17.71
2023-02-17T23:34:32.183Z,19.34
2023-02-17T23:37:38.949Z,25.07
2023-02-17T23:40:45.561Z,29.98
2023-02-17T23:43:52.457Z,19.99
2023-02-17T23:46:58.286Z,14.79
2023-02-17T23:50:09.821Z,13.96
2023-02-17T23:53:15.896Z,13.86
2023-02-17T23:56:27.954Z,13.88
2023-02-17T23:59:40.667Z,15.17
